KCRX/CRX METAR and TAF weather

Enter ICAO airport designator
Station Type Date Time Source
KCRX METAR 2020/02/26 09:55 UTC NOAA

KCRX 260955Z AUTO 31009KT 7SM OVC004 07/06 A2997 RMK AO2


Station Type Date Time Source
KCRX Decoded METAR 2020/02/26 09:55 UTC NOAA

Station name not available
Feb 26, 2020 - 04:55 AM EST / 2020.02.26 0955 UTC
Wind: from the NW (310 degrees) at 10 MPH (9 KT):0
Visibility: 7 mile(s):0
Sky conditions: overcast
Temperature: 44 F (7 C)
Dew Point: 42 F (6 C)
Relative Humidity: 93%
Pressure (altimeter): 29.97 in. Hg (1014 hPa)
ob: KCRX 260955Z AUTO 31009KT 7SM OVC004 07/06 A2997 RMK AO2
cycle: 10

Station Type Date Time Source
KCRX TAF UTC NOAA

Error!

Example: see airport list